Time;durP1;ratioP1;P1;durP2;ratioP2;P2;SDS_P1;SDS_P2;PMS_P1;PMS_P2;Temp;Humidity;BMP_temperature;BMP_pressure;BME280_temperature;BME280_humidity;BME280_pressure;Samples;Min_cycle;Max_cycle;Signal;HPM_P1;HPM_P2
2021/10/16 00:01:13;;;;;;;9.25;2.08;;;8.60;99.90;;;;;;5094133;28;20039;-68
2021/10/16 00:03:39;;;;;;;6.63;2.67;;;8.40;99.90;;;;;;5123642;27;20036;-68
2021/10/16 00:06:05;;;;;;;11.82;2.95;;;8.30;99.90;;;;;;5090479;28;20055;-68
2021/10/16 00:08:30;;;;;;;12.65;2.78;;;8.20;99.90;;;;;;5094589;28;20035;-68
2021/10/16 00:10:56;;;;;;;14.27;2.70;;;8.20;99.90;;;;;;5092448;28;20035;-68
2021/10/16 00:13:22;;;;;;;10.57;2.22;;;8.10;99.90;;;;;;5093115;28;20986;-68
2021/10/16 00:15:48;;;;;;;31.05;2.85;;;8.00;99.90;;;;;;5094050;28;20039;-68
2021/10/16 00:18:14;;;;;;;10.95;2.20;;;8.00;99.90;;;;;;5096933;28;20059;-68
2021/10/16 00:20:40;;;;;;;8.35;2.20;;;8.00;99.90;;;;;;5098683;27;20055;-67
2021/10/16 00:23:06;;;;;;;9.60;2.35;;;8.00;99.90;;;;;;5097320;28;20076;-68
2021/10/16 00:25:32;;;;;;;10.35;2.58;;;8.00;99.90;;;;;;5098490;28;20501;-68
2021/10/16 00:27:57;;;;;;;10.63;2.58;;;8.00;99.90;;;;;;5100087;28;20031;-68
2021/10/16 00:30:23;;;;;;;8.55;1.95;;;7.90;99.90;;;;;;5098029;28;20036;-68
2021/10/16 00:32:49;;;;;;;8.15;2.53;;;7.90;99.90;;;;;;5098549;28;20047;-68
2021/10/16 00:35:14;;;;;;;9.57;2.92;;;7.90;99.90;;;;;;5098715;27;21094;-68
2021/10/16 00:37:40;;;;;;;8.85;2.55;;;7.80;99.90;;;;;;5099280;27;20036;-67
2021/10/16 00:40:07;;;;;;;7.28;2.10;;;7.80;99.90;;;;;;5097578;28;20656;-68
2021/10/16 00:42:43;;;;;;;7.78;2.22;;;7.70;99.90;;;;;;5095735;27;20046;-68
2021/10/16 00:45:09;;;;;;;10.02;1.98;;;7.70;99.90;;;;;;5097276;28;20059;-68
2021/10/16 00:47:34;;;;;;;7.18;2.10;;;7.70;99.90;;;;;;5098811;28;20116;-68
2021/10/16 00:50:00;;;;;;;12.00;2.10;;;7.60;99.90;;;;;;5096701;28;20039;-67
2021/10/16 00:52:25;;;;;;;13.05;2.45;;;7.50;99.90;;;;;;5099623;28;20062;-68
2021/10/16 00:54:52;;;;;;;9.85;2.42;;;7.40;99.90;;;;;;5094575;28;20040;-68
2021/10/16 00:57:17;;;;;;;11.38;1.95;;;7.30;99.90;;;;;;5095066;27;20047;-67
2021/10/16 00:59:52;;;;;;;9.93;2.35;;;7.30;99.90;;;;;;5094260;27;20054;-68
2021/10/16 01:02:19;;;;;;;6.10;2.00;;;7.40;99.90;;;;;;5096541;27;20043;-67
2021/10/16 01:04:46;;;;;;;7.70;2.30;;;7.30;99.90;;;;;;5098139;27;20072;-67
2021/10/16 01:07:12;;;;;;;9.10;1.83;;;7.40;99.90;;;;;;5097004;27;20088;-68
2021/10/16 01:09:45;;;;;;;6.80;2.08;;;7.40;99.90;;;;;;5098526;28;20044;-68
2021/10/16 01:12:11;;;;;;;10.20;2.38;;;7.40;99.90;;;;;;5097307;27;20044;-68
2021/10/16 01:14:59;;;;;;;9.18;2.13;;;7.40;99.90;;;;;;5094531;27;20044;-68
2021/10/16 01:17:25;;;;;;;8.23;2.00;;;7.50;99.90;;;;;;5095240;28;20058;-68
2021/10/16 01:19:55;;;;;;;12.65;2.67;;;7.40;99.90;;;;;;5097242;28;20783;-68
2021/10/16 01:22:22;;;;;;;9.85;3.30;;;7.30;99.90;;;;;;5094790;28;20043;-68
2021/10/16 01:24:50;;;;;;;10.23;2.55;;;7.40;99.90;;;;;;5097789;27;20035;-68
2021/10/16 01:27:17;;;;;;;9.10;2.17;;;7.30;99.90;;;;;;5097019;27;20127;-68
2021/10/16 01:29:43;;;;;;;8.93;2.10;;;7.30;99.90;;;;;;5095832;27;20075;-68
2021/10/16 01:32:09;;;;;;;9.10;2.25;;;7.40;99.90;;;;;;5096974;27;20183;-67
2021/10/16 01:34:34;;;;;;;8.18;2.28;;;7.40;99.90;;;;;;5124587;27;20067;-68
2021/10/16 01:37:01;;;;;;;13.82;2.67;;;7.30;99.90;;;;;;5099059;27;20675;-67
2021/10/16 01:39:27;;;;;;;9.80;2.47;;;7.30;99.90;;;;;;5097263;28;20070;-67
2021/10/16 01:41:53;;;;;;;9.20;2.53;;;7.40;99.90;;;;;;5095128;28;20076;-67
2021/10/16 01:44:19;;;;;;;8.88;2.40;;;7.40;99.90;;;;;;5097500;27;20159;-68
2021/10/16 01:46:44;;;;;;;11.25;4.03;;;7.40;99.90;;;;;;5093783;28;20073;-68
2021/10/16 01:49:13;;;;;;;13.43;2.65;;;7.40;99.90;;;;;;5091793;28;20043;-68
2021/10/16 01:51:39;;;;;;;7.43;2.25;;;7.40;99.90;;;;;;5089715;27;20050;-68
2021/10/16 01:54:05;;;;;;;8.10;2.63;;;7.40;99.90;;;;;;5091760;27;20035;-68
2021/10/16 01:56:31;;;;;;;8.05;2.22;;;7.40;99.90;;;;;;5093888;28;20450;-68
2021/10/16 01:59:14;;;;;;;10.90;2.25;;;7.40;99.90;;;;;;5097672;28;20466;-67
2021/10/16 02:01:39;;;;;;;7.97;2.28;;;7.40;99.90;;;;;;5094809;28;20116;-68
2021/10/16 02:04:05;;;;;;;10.23;2.65;;;7.50;99.90;;;;;;5096658;28;20489;-68
2021/10/16 02:06:30;;;;;;;8.20;2.58;;;7.50;99.90;;;;;;5095086;28;20032;-68
2021/10/16 02:08:56;;;;;;;6.82;2.20;;;7.60;99.90;;;;;;5128214;27;20043;-68
2021/10/16 02:11:22;;;;;;;7.80;1.73;;;7.60;99.90;;;;;;5094539;27;20733;-71
2021/10/16 02:13:47;;;;;;;13.57;2.67;;;7.60;99.90;;;;;;5096721;28;20027;-67
2021/10/16 02:16:13;;;;;;;8.95;2.10;;;7.60;99.90;;;;;;5097854;27;20067;-67
2021/10/16 02:18:38;;;;;;;8.32;2.00;;;7.60;99.90;;;;;;5098146;27;20846;-68
2021/10/16 02:21:04;;;;;;;6.85;2.00;;;7.70;99.90;;;;;;5094576;27;20035;-67
2021/10/16 02:23:29;;;;;;;10.23;2.28;;;7.80;99.90;;;;;;5098846;27;20036;-68
2021/10/16 02:25:55;;;;;;;8.07;2.58;;;7.80;99.90;;;;;;5101780;27;20485;-67
2021/10/16 02:28:21;;;;;;;9.23;2.60;;;7.80;99.90;;;;;;5100730;27;20146;-68
2021/10/16 02:30:46;;;;;;;10.20;2.30;;;7.90;99.90;;;;;;5098474;28;21794;-67
2021/10/16 02:33:12;;;;;;;12.43;3.03;;;7.90;99.90;;;;;;5100694;27;20058;-68
2021/10/16 02:35:38;;;;;;;7.05;1.90;;;8.00;99.90;;;;;;5104087;27;20114;-67
2021/10/16 02:38:03;;;;;;;11.02;2.03;;;8.00;99.90;;;;;;5100991;28;20509;-68
2021/10/16 02:40:31;;;;;;;8.80;1.70;;;8.00;99.90;;;;;;5101326;28;20044;-68
2021/10/16 02:42:56;;;;;;;7.15;2.08;;;8.00;99.90;;;;;;5099334;28;20063;-68
2021/10/16 02:45:22;;;;;;;11.73;2.33;;;8.00;99.90;;;;;;5102617;27;20027;-68
2021/10/16 02:47:48;;;;;;;8.50;2.20;;;8.00;99.90;;;;;;5103399;28;20035;-67
2021/10/16 02:50:14;;;;;;;6.43;2.05;;;8.00;99.90;;;;;;5100622;28;20480;-68
2021/10/16 02:52:39;;;;;;;7.75;2.17;;;8.10;99.90;;;;;;5098330;28;20112;-68
2021/10/16 02:55:05;;;;;;;8.80;2.58;;;8.10;99.90;;;;;;5099786;27;20578;-67
2021/10/16 02:57:32;;;;;;;9.05;2.58;;;8.10;99.90;;;;;;5102117;27;20043;-67
2021/10/16 02:59:58;;;;;;;8.73;2.22;;;8.20;99.90;;;;;;5103959;28;20047;-68
2021/10/16 03:02:24;;;;;;;10.23;2.85;;;8.20;99.90;;;;;;5103812;27;20044;-68
2021/10/16 03:04:49;;;;;;;7.20;2.40;;;8.20;99.90;;;;;;5102052;27;20047;-67
2021/10/16 03:07:16;;;;;;;10.07;2.47;;;8.30;99.90;;;;;;5100305;28;20102;-67
2021/10/16 03:09:42;;;;;;;7.30;2.72;;;8.30;99.90;;;;;;5101548;28;20032;-68
2021/10/16 03:12:07;;;;;;;7.63;2.55;;;8.30;99.90;;;;;;5101163;28;20559;-67
2021/10/16 03:14:33;;;;;;;6.13;2.05;;;8.30;99.90;;;;;;5100312;28;20048;-68
2021/10/16 03:16:58;;;;;;;10.45;2.47;;;8.40;99.90;;;;;;5103320;28;20359;-67
2021/10/16 03:19:24;;;;;;;7.72;2.60;;;8.30;99.90;;;;;;5101693;27;20047;-67
2021/10/16 03:21:50;;;;;;;10.88;2.40;;;8.40;99.90;;;;;;5098682;28;20505;-67
2021/10/16 03:24:15;;;;;;;8.13;2.22;;;8.40;99.90;;;;;;5103666;28;20047;-67
2021/10/16 03:26:41;;;;;;;7.35;2.28;;;8.50;99.90;;;;;;5099536;28;20035;-67
2021/10/16 03:29:06;;;;;;;10.32;2.90;;;8.50;99.90;;;;;;5097952;27;20039;-67
2021/10/16 03:31:32;;;;;;;8.10;1.85;;;8.50;99.90;;;;;;5104262;27;20044;-67
2021/10/16 03:33:58;;;;;;;7.10;1.75;;;8.50;99.90;;;;;;5101295;28;20046;-67
2021/10/16 03:36:23;;;;;;;6.28;2.13;;;8.50;99.90;;;;;;5097345;27;20401;-67
2021/10/16 03:38:49;;;;;;;9.10;2.28;;;8.60;99.90;;;;;;5102598;28;20074;-67
2021/10/16 03:41:15;;;;;;;7.32;2.38;;;8.60;99.90;;;;;;5101985;28;20047;-67
2021/10/16 03:43:40;;;;;;;7.78;2.63;;;8.60;99.90;;;;;;5102490;27;20051;-67
2021/10/16 03:46:06;;;;;;;6.97;2.03;;;8.60;99.90;;;;;;5101747;27;20047;-68
2021/10/16 03:48:31;;;;;;;6.10;1.92;;;8.60;99.90;;;;;;5103922;28;20169;-68
2021/10/16 03:50:57;;;;;;;7.07;1.90;;;8.60;99.90;;;;;;5133160;27;20035;-67
2021/10/16 03:53:23;;;;;;;9.73;1.80;;;8.60;99.90;;;;;;5103036;28;20043;-67
2021/10/16 03:55:48;;;;;;;6.88;2.05;;;8.60;99.90;;;;;;5103734;27;20482;-67
2021/10/16 03:58:14;;;;;;;9.15;1.95;;;8.60;99.90;;;;;;5099651;28;20047;-67
2021/10/16 04:00:39;;;;;;;8.13;1.73;;;8.60;99.90;;;;;;5098506;27;20036;-67
2021/10/16 04:03:06;;;;;;;8.50;2.33;;;8.60;99.90;;;;;;5102159;28;20050;-68
2021/10/16 04:05:33;;;;;;;7.15;2.15;;;8.60;99.90;;;;;;5096624;28;20173;-68
2021/10/16 04:07:59;;;;;;;11.93;2.40;;;8.60;99.90;;;;;;5097378;28;20127;-67
2021/10/16 04:10:24;;;;;;;7.00;2.00;;;8.60;99.90;;;;;;5103264;28;20126;-67
2021/10/16 04:12:50;;;;;;;10.20;2.28;;;8.60;99.90;;;;;;5102790;28;20063;-68
2021/10/16 04:15:16;;;;;;;7.15;1.92;;;8.50;99.90;;;;;;5099200;28;20042;-67
2021/10/16 04:17:44;;;;;;;7.65;2.28;;;8.50;99.90;;;;;;5081208;28;20051;-68
2021/10/16 04:20:11;;;;;;;7.15;1.88;;;8.50;99.90;;;;;;5130548;27;20040;-67
2021/10/16 04:22:36;;;;;;;6.70;2.35;;;8.50;99.90;;;;;;5082837;28;20048;-67
2021/10/16 04:25:02;;;;;;;6.97;2.10;;;8.50;99.90;;;;;;5099976;28;20101;-67
2021/10/16 04:27:28;;;;;;;15.13;2.50;;;8.50;99.90;;;;;;5102161;28;20032;-67
2021/10/16 04:29:53;;;;;;;12.30;2.88;;;8.50;99.90;;;;;;5101072;28;20040;-67
2021/10/16 04:32:19;;;;;;;9.20;3.38;;;8.40;99.90;;;;;;5100349;28;20050;-67
2021/10/16 04:34:45;;;;;;;8.35;2.70;;;8.40;99.90;;;;;;5098740;28;20043;-67
2021/10/16 04:37:11;;;;;;;7.47;2.45;;;8.40;99.90;;;;;;5100390;28;20062;-67
2021/10/16 04:39:37;;;;;;;11.20;2.10;;;8.40;99.90;;;;;;5101988;28;20051;-68
2021/10/16 04:42:04;;;;;;;6.60;2.25;;;8.40;99.90;;;;;;5130145;27;20399;-67
2021/10/16 04:44:30;;;;;;;12.27;2.97;;;8.40;99.90;;;;;;5102435;28;20147;-67
2021/10/16 04:46:58;;;;;;;17.17;4.75;;;8.40;99.90;;;;;;5108689;28;20112;-67
2021/10/16 04:49:23;;;;;;;7.03;2.63;;;8.40;99.90;;;;;;5108335;28;20451;-68
2021/10/16 04:51:49;;;;;;;9.32;2.58;;;8.40;99.90;;;;;;5101682;28;20092;-67
2021/10/16 04:54:15;;;;;;;11.90;2.80;;;8.40;99.90;;;;;;5102560;28;20040;-67
2021/10/16 04:56:40;;;;;;;8.15;2.17;;;8.50;99.90;;;;;;5101769;28;20040;-68
2021/10/16 04:59:06;;;;;;;7.53;2.67;;;8.40;99.90;;;;;;5100781;28;20085;-67
2021/10/16 05:01:31;;;;;;;5.22;2.33;;;8.50;99.90;;;;;;5098683;28;20040;-67
2021/10/16 05:03:57;;;;;;;9.82;2.38;;;8.50;99.90;;;;;;5103537;28;20039;-67
2021/10/16 05:06:23;;;;;;;17.27;3.05;;;8.60;99.90;;;;;;5101532;27;20055;-67
2021/10/16 05:08:48;;;;;;;10.10;2.53;;;8.60;99.90;;;;;;5104799;28;20036;-67
2021/10/16 05:11:14;;;;;;;6.15;2.30;;;8.70;99.90;;;;;;5104573;28;20056;-68
2021/10/16 05:13:39;;;;;;;12.50;3.22;;;8.70;99.90;;;;;;5097100;27;20059;-67
2021/10/16 05:16:05;;;;;;;16.30;3.70;;;8.70;99.90;;;;;;5090807;27;20470;-68
2021/10/16 05:18:32;;;;;;;12.27;3.00;;;8.70;99.90;;;;;;5089179;27;20134;-68
2021/10/16 05:20:57;;;;;;;10.07;2.53;;;8.80;99.90;;;;;;5123208;27;20147;-68
2021/10/16 05:23:24;;;;;;;7.30;2.25;;;8.70;99.90;;;;;;5091876;27;21724;-68
2021/10/16 05:25:51;;;;;;;6.45;1.92;;;8.70;99.90;;;;;;5092475;27;20411;-68
2021/10/16 05:28:17;;;;;;;8.63;2.90;;;8.80;99.90;;;;;;5121238;27;20036;-67
2021/10/16 05:30:43;;;;;;;7.95;2.38;;;8.80;99.90;;;;;;5091449;27;20055;-68
2021/10/16 05:33:09;;;;;;;12.75;2.42;;;8.80;99.90;;;;;;5093721;27;20123;-67
2021/10/16 05:35:34;;;;;;;7.15;3.05;;;8.80;99.90;;;;;;5091587;27;20059;-68
2021/10/16 05:38:00;;;;;;;11.65;2.20;;;8.80;99.90;;;;;;5122512;27;20035;-68
2021/10/16 05:40:26;;;;;;;7.80;2.53;;;8.90;99.90;;;;;;5092819;27;20036;-68
2021/10/16 05:42:52;;;;;;;10.60;2.97;;;8.90;99.90;;;;;;5093174;27;20077;-68
2021/10/16 05:45:17;;;;;;;9.88;2.40;;;8.90;99.90;;;;;;5091524;28;20040;-68
2021/10/16 05:47:43;;;;;;;11.38;3.33;;;8.90;99.90;;;;;;5096000;27;20126;-68
2021/10/16 05:50:10;;;;;;;14.57;3.17;;;8.90;99.90;;;;;;5093302;27;20485;-68
2021/10/16 05:52:36;;;;;;;9.90;2.25;;;9.00;99.90;;;;;;5092626;28;20043;-68
2021/10/16 05:55:04;;;;;;;6.55;2.05;;;9.00;99.90;;;;;;5099654;28;20050;-68
2021/10/16 05:57:30;;;;;;;8.25;2.83;;;9.00;99.90;;;;;;5094463;27;20032;-68
2021/10/16 05:59:55;;;;;;;9.70;2.78;;;9.00;99.90;;;;;;5096553;27;20125;-68
2021/10/16 06:02:21;;;;;;;10.90;3.42;;;9.10;99.90;;;;;;5096872;28;20894;-68
2021/10/16 06:04:47;;;;;;;12.50;2.47;;;9.00;99.90;;;;;;5096126;27;20122;-68
2021/10/16 06:07:12;;;;;;;9.07;2.00;;;9.00;99.90;;;;;;5097789;27;20027;-68
2021/10/16 06:09:38;;;;;;;11.68;3.00;;;9.00;99.90;;;;;;5097558;28;20097;-68
2021/10/16 06:12:04;;;;;;;12.20;1.70;;;9.10;99.90;;;;;;5100097;27;20044;-68
2021/10/16 06:14:29;;;;;;;9.18;2.50;;;9.00;99.90;;;;;;5093839;27;20040;-68
2021/10/16 06:16:55;;;;;;;15.80;2.70;;;9.10;99.90;;;;;;5089377;27;20068;-68
2021/10/16 06:19:21;;;;;;;12.85;2.97;;;9.10;99.90;;;;;;5122235;27;20035;-67
2021/10/16 06:21:47;;;;;;;7.05;2.38;;;9.10;99.90;;;;;;5094648;27;20050;-67
2021/10/16 06:24:13;;;;;;;15.25;3.25;;;9.10;99.90;;;;;;5098263;28;20060;-68
2021/10/16 06:26:38;;;;;;;6.78;2.40;;;9.10;99.90;;;;;;5095297;27;21455;-68
2021/10/16 06:29:04;;;;;;;7.43;2.28;;;9.10;99.90;;;;;;5100435;28;20027;-67
2021/10/16 06:31:30;;;;;;;9.35;2.33;;;9.10;99.90;;;;;;5094965;27;20105;-67
2021/10/16 06:33:55;;;;;;;8.60;3.47;;;9.10;99.90;;;;;;5096570;27;20046;-68
2021/10/16 06:36:21;;;;;;;12.57;2.55;;;9.10;99.90;;;;;;5097145;28;20584;-69
2021/10/16 06:38:46;;;;;;;12.15;2.70;;;9.10;99.90;;;;;;5098017;28;20067;-68
2021/10/16 06:41:12;;;;;;;11.40;3.17;;;9.10;99.90;;;;;;5099429;27;20040;-68
2021/10/16 06:43:38;;;;;;;16.75;3.30;;;9.10;99.90;;;;;;5095945;28;20043;-68
2021/10/16 06:46:03;;;;;;;12.77;2.20;;;9.10;99.90;;;;;;5096588;27;20028;-68
2021/10/16 06:48:29;;;;;;;8.70;2.30;;;9.20;99.90;;;;;;5094722;27;20039;-68
2021/10/16 06:50:55;;;;;;;13.98;2.60;;;9.10;99.90;;;;;;5095945;27;20151;-68
2021/10/16 06:53:20;;;;;;;9.50;2.60;;;9.10;99.90;;;;;;5093028;27;20078;-68
2021/10/16 06:55:46;;;;;;;10.60;2.90;;;9.20;99.90;;;;;;5123933;27;20039;-68
2021/10/16 06:58:12;;;;;;;10.40;2.65;;;9.20;99.90;;;;;;5094699;27;20460;-68
2021/10/16 07:00:37;;;;;;;10.52;2.67;;;9.10;99.90;;;;;;5098583;27;20051;-68
2021/10/16 07:03:05;;;;;;;10.02;2.58;;;9.20;99.90;;;;;;5093024;28;20482;-68
2021/10/16 07:05:31;;;;;;;9.63;2.30;;;9.20;99.90;;;;;;5093867;28;20044;-68
2021/10/16 07:07:57;;;;;;;13.32;2.88;;;9.20;99.90;;;;;;5092688;28;20046;-68
2021/10/16 07:10:22;;;;;;;9.35;2.50;;;9.20;99.90;;;;;;5091158;28;20490;-68
2021/10/16 07:12:48;;;;;;;12.50;2.47;;;9.30;99.90;;;;;;5093888;28;20048;-68
2021/10/16 07:15:14;;;;;;;9.75;2.13;;;9.30;99.90;;;;;;5093927;28;20082;-68
2021/10/16 07:17:39;;;;;;;12.02;2.60;;;9.20;99.90;;;;;;5091021;27;20109;-68
2021/10/16 07:20:06;;;;;;;12.85;2.38;;;9.30;99.90;;;;;;5094821;27;20062;-68
2021/10/16 07:22:32;;;;;;;9.90;1.88;;;9.30;99.90;;;;;;5092400;28;20040;-68
2021/10/16 07:24:57;;;;;;;15.43;2.63;;;9.30;99.90;;;;;;5098170;27;20036;-69
2021/10/16 07:27:23;;;;;;;19.67;2.70;;;9.30;99.90;;;;;;5088482;28;20036;-68
2021/10/16 07:29:49;;;;;;;14.05;2.58;;;9.40;99.90;;;;;;5075850;28;20208;-68
2021/10/16 07:32:15;;;;;;;9.90;2.88;;;9.30;99.90;;;;;;5095783;28;20050;-68
2021/10/16 07:34:42;;;;;;;8.60;2.58;;;9.30;99.90;;;;;;5094497;28;20043;-68
2021/10/16 07:37:08;;;;;;;9.02;2.67;;;9.40;99.90;;;;;;5090950;28;20055;-68
2021/10/16 07:39:34;;;;;;;12.13;2.50;;;9.40;99.90;;;;;;5089427;28;20055;-68
2021/10/16 07:41:59;;;;;;;11.52;2.20;;;9.40;99.90;;;;;;5092236;28;20055;-68
2021/10/16 07:44:25;;;;;;;11.95;2.83;;;9.40;99.90;;;;;;5091677;27;20971;-68
2021/10/16 07:46:51;;;;;;;10.23;2.63;;;9.40;99.90;;;;;;5095462;28;20048;-68
2021/10/16 07:49:17;;;;;;;9.35;2.28;;;9.50;99.90;;;;;;5091984;28;20055;-68
2021/10/16 07:51:43;;;;;;;11.55;2.60;;;9.50;99.90;;;;;;5094971;28;20040;-68
2021/10/16 07:54:09;;;;;;;11.73;3.00;;;9.50;99.90;;;;;;5092973;28;20042;-69
2021/10/16 07:56:34;;;;;;;10.70;2.08;;;9.60;99.90;;;;;;5126075;27;20050;-68
2021/10/16 07:59:00;;;;;;;12.57;2.55;;;9.60;99.90;;;;;;5097086;28;20036;-68
2021/10/16 08:01:26;;;;;;;9.85;2.30;;;9.60;99.90;;;;;;5094179;28;20116;-68
2021/10/16 08:03:52;;;;;;;15.73;3.95;;;9.60;99.90;;;;;;5092068;28;20055;-68
2021/10/16 08:06:18;;;;;;;16.35;2.40;;;9.70;99.90;;;;;;5093476;27;20118;-68
2021/10/16 08:08:44;;;;;;;20.13;3.10;;;9.70;99.90;;;;;;5095150;28;21028;-68
2021/10/16 08:11:10;;;;;;;10.70;2.25;;;9.80;99.90;;;;;;5095159;28;20134;-68
2021/10/16 08:13:35;;;;;;;12.98;2.60;;;9.80;99.90;;;;;;5093172;28;20431;-68
2021/10/16 08:16:01;;;;;;;8.07;2.50;;;9.80;99.90;;;;;;5096444;28;20046;-68
2021/10/16 08:18:27;;;;;;;14.38;3.53;;;9.90;99.90;;;;;;5097602;28;20034;-68
2021/10/16 08:20:52;;;;;;;8.63;2.20;;;9.90;99.90;;;;;;5095603;28;20047;-68
2021/10/16 08:23:18;;;;;;;12.45;2.70;;;9.90;99.90;;;;;;5096463;28;20796;-68
2021/10/16 08:25:44;;;;;;;14.15;3.25;;;10.00;99.90;;;;;;5093721;28;20477;-68
2021/10/16 08:28:12;;;;;;;8.80;2.45;;;10.00;99.90;;;;;;5093878;28;20391;-68
2021/10/16 08:30:43;;;;;;;18.95;3.70;;;10.10;99.90;;;;;;5129347;27;20050;-68
2021/10/16 08:33:09;;;;;;;9.88;2.67;;;10.10;99.90;;;;;;5094811;28;20039;-68
2021/10/16 08:35:34;;;;;;;8.50;2.35;;;10.20;99.90;;;;;;5094082;28;20039;-68
2021/10/16 08:38:00;;;;;;;15.65;2.35;;;10.20;99.90;;;;;;5095520;28;20036;-68
2021/10/16 08:40:27;;;;;;;14.80;2.97;;;10.20;99.90;;;;;;5098316;28;20044;-68
2021/10/16 08:42:53;;;;;;;13.90;2.22;;;10.20;99.90;;;;;;5098603;28;20127;-68
2021/10/16 08:45:19;;;;;;;12.85;2.88;;;10.30;99.90;;;;;;5096519;28;20028;-68
2021/10/16 08:47:46;;;;;;;11.00;3.53;;;10.30;99.90;;;;;;5129416;27;20043;-68
2021/10/16 08:50:12;;;;;;;10.73;2.65;;;10.30;99.90;;;;;;5099923;28;20046;-69
2021/10/16 08:52:39;;;;;;;12.02;3.08;;;10.30;99.90;;;;;;5099600;28;20414;-68
2021/10/16 08:55:07;;;;;;;15.63;3.22;;;10.40;99.90;;;;;;5101197;28;20038;-68
2021/10/16 08:57:34;;;;;;;7.93;2.28;;;10.40;99.90;;;;;;5099526;28;20039;-68
2021/10/16 09:00:39;;;;;;;10.60;2.13;;;10.50;99.90;;;;;;5097314;28;21243;-68
2021/10/16 09:03:27;;;;;;;22.35;4.30;;;10.50;99.90;;;;;;5098004;28;20050;-68
2021/10/16 09:06:11;;;;;;;6.97;2.28;;;10.50;99.90;;;;;;5099520;28;20055;-68
2021/10/16 09:08:48;;;;;;;10.27;3.42;;;10.60;99.90;;;;;;5095333;28;20099;-68
2021/10/16 09:11:25;;;;;;;11.60;2.83;;;10.60;99.90;;;;;;5130087;27;20105;-68
2021/10/16 09:14:00;;;;;;;12.85;3.00;;;10.60;99.90;;;;;;5100439;27;20075;-68
2021/10/16 09:16:33;;;;;;;25.60;3.77;;;10.70;99.90;;;;;;5095682;27;20047;-68
2021/10/16 09:19:08;;;;;;;11.93;2.30;;;10.70;99.90;;;;;;5092473;28;20055;-68
2021/10/16 09:21:41;;;;;;;12.83;2.63;;;10.80;99.90;;;;;;5096617;27;20057;-68
2021/10/16 09:24:11;;;;;;;9.18;2.70;;;10.80;99.90;;;;;;5128448;27;20036;-68
2021/10/16 09:26:40;;;;;;;8.52;2.55;;;10.90;99.90;;;;;;5098409;28;20154;-68
2021/10/16 09:29:08;;;;;;;10.27;2.67;;;11.00;99.90;;;;;;5099157;28;20032;-68
2021/10/16 09:31:54;;;;;;;10.55;2.63;;;11.10;99.90;;;;;;5098254;27;20117;-68
2021/10/16 09:34:26;;;;;;;;;;;11.10;99.90;;;;;;5095710;28;20040;-68
2021/10/16 09:36:59;;;;;;;9.82;2.80;;;11.20;99.90;;;;;;5098842;28;19915;-68
2021/10/16 09:39:25;;;;;;;14.52;3.03;;;11.20;99.90;;;;;;5100991;28;20039;-68
2021/10/16 09:41:50;;;;;;;12.45;2.88;;;11.30;99.90;;;;;;5111036;27;20409;-68
2021/10/16 09:44:23;;;;;;;14.88;2.97;;;11.30;99.90;;;;;;5096150;27;20430;-68
2021/10/16 09:46:56;;;;;;;10.65;2.83;;;11.30;99.90;;;;;;5095907;28;20059;-68
2021/10/16 09:49:34;;;;;;;15.85;3.45;;;11.40;99.90;;;;;;5100650;27;20043;-68
2021/10/16 09:52:01;;;;;;;12.43;2.85;;;11.40;99.90;;;;;;5097695;27;20039;-69
2021/10/16 09:54:30;;;;;;;13.40;2.55;;;11.50;99.90;;;;;;5095261;28;20036;-68
2021/10/16 09:56:57;;;;;;;14.75;2.95;;;11.50;99.90;;;;;;5097694;28;20044;-68
2021/10/16 09:59:25;;;;;;;9.35;2.80;;;11.50;99.90;;;;;;5097222;28;20078;-68
2021/10/16 10:01:51;;;;;;;11.15;2.65;;;11.50;99.90;;;;;;5095870;28;20953;-68
2021/10/16 10:04:18;;;;;;;7.32;2.45;;;11.50;99.90;;;;;;5098121;28;20040;-67
2021/10/16 10:06:45;;;;;;;13.68;2.97;;;11.60;99.90;;;;;;5098255;27;20082;-67
2021/10/16 10:09:11;;;;;;;13.00;2.85;;;11.60;99.90;;;;;;5095431;28;20035;-67
2021/10/16 10:11:37;;;;;;;10.27;2.35;;;11.60;99.90;;;;;;5092064;27;20370;-67
2021/10/16 10:14:04;;;;;;;13.23;2.78;;;11.60;99.90;;;;;;5099802;27;20101;-67
2021/10/16 10:16:32;;;;;;;16.85;2.85;;;11.70;99.90;;;;;;5097699;28;20448;-67
2021/10/16 10:19:00;;;;;;;9.38;2.60;;;11.70;99.90;;;;;;5096808;28;20039;-67
2021/10/16 10:21:35;;;;;;;15.02;2.65;;;11.80;99.90;;;;;;5097349;28;20460;-67
2021/10/16 10:24:03;;;;;;;12.52;2.28;;;11.80;99.90;;;;;;5126972;27;20059;-68
2021/10/16 10:26:37;;;;;;;17.05;3.33;;;11.80;99.90;;;;;;5093038;28;20042;-69
2021/10/16 10:29:07;;;;;;;16.48;2.70;;;11.80;99.90;;;;;;5096990;27;20040;-68
2021/10/16 10:31:57;;;;;;;10.90;2.85;;;11.90;99.90;;;;;;5096443;28;20048;-68
2021/10/16 10:34:38;;;;;;;21.90;3.72;;;12.00;99.90;;;;;;5094166;27;20078;-67
2021/10/16 10:37:08;;;;;;;14.60;3.53;;;12.00;99.90;;;;;;5099729;28;20046;-68
2021/10/16 10:39:34;;;;;;;10.63;2.22;;;12.10;99.90;;;;;;5097868;27;20059;-67
2021/10/16 10:42:23;;;;;;;13.13;3.30;;;12.10;99.90;;;;;;5103734;27;20035;-67
2021/10/16 10:44:54;;;;;;;12.40;2.78;;;12.30;99.90;;;;;;5086509;27;20044;-67
2021/10/16 10:47:22;;;;;;;19.00;3.42;;;12.30;99.90;;;;;;5102354;28;20035;-67
2021/10/16 10:49:53;;;;;;;13.30;2.47;;;12.40;99.90;;;;;;5129464;27;20758;-67
2021/10/16 10:52:19;;;;;;;14.15;2.28;;;12.50;99.90;;;;;;5104391;27;20031;-67
2021/10/16 10:55:07;;;;;;;13.45;2.90;;;12.40;99.90;;;;;;5099833;28;20055;-67
2021/10/16 10:57:46;;;;;;;10.35;2.42;;;12.40;99.90;;;;;;5097598;28;20044;-66
2021/10/16 11:00:13;;;;;;;8.38;2.08;;;12.50;99.90;;;;;;5096014;27;20043;-66
2021/10/16 11:02:40;;;;;;;13.45;2.63;;;12.50;99.90;;;;;;5097878;27;20393;-68
2021/10/16 11:05:32;;;;;;;16.65;3.20;;;12.60;99.90;;;;;;5097892;27;20414;-67
2021/10/16 11:08:10;;;;;;;10.43;3.03;;;12.60;99.90;;;;;;5100154;28;20040;-67
2021/10/16 11:10:36;;;;;;;10.55;2.67;;;12.60;99.90;;;;;;5126347;27;20138;-67
2021/10/16 11:13:17;;;;;;;12.85;2.58;;;12.60;99.90;;;;;;5098887;28;20047;-67
2021/10/16 11:15:45;;;;;;;15.15;2.72;;;12.70;99.90;;;;;;5081450;28;20482;-67
2021/10/16 11:18:13;;;;;;;10.35;2.55;;;12.70;99.90;;;;;;5098768;27;20096;-67
2021/10/16 11:20:39;;;;;;;16.00;3.40;;;12.80;99.90;;;;;;5099324;28;20044;-68
2021/10/16 11:23:05;;;;;;;15.88;2.47;;;12.80;99.90;;;;;;5101054;27;20427;-67
2021/10/16 11:25:33;;;;;;;12.38;3.10;;;12.80;99.90;;;;;;5099244;28;20039;-67
2021/10/16 11:28:10;;;;;;;7.30;2.25;;;12.80;99.90;;;;;;5096799;28;20055;-67
2021/10/16 11:30:46;;;;;;;10.35;2.05;;;12.90;99.90;;;;;;5095116;28;20039;-67
2021/10/16 11:33:15;;;;;;;11.32;3.08;;;12.90;99.90;;;;;;5096837;28;20146;-67
2021/10/16 11:35:44;;;;;;;11.77;3.05;;;12.90;99.90;;;;;;5100174;28;20082;-67
2021/10/16 11:38:11;;;;;;;9.25;2.03;;;12.90;99.90;;;;;;5103781;28;20410;-67
2021/10/16 11:40:37;;;;;;;11.77;2.35;;;13.00;99.90;;;;;;5105610;28;20036;-67
2021/10/16 11:43:17;;;;;;;14.23;3.22;;;13.00;99.90;;;;;;5102844;27;20043;-67
2021/10/16 11:45:45;;;;;;;13.40;3.20;;;13.00;99.90;;;;;;5101323;27;20623;-67
2021/10/16 11:48:12;;;;;;;6.03;2.25;;;13.00;99.90;;;;;;5098995;28;20128;-67
2021/10/16 11:50:43;;;;;;;12.60;3.53;;;13.00;99.90;;;;;;5100205;28;20048;-67
2021/10/16 11:53:24;;;;;;;11.70;2.38;;;13.10;99.90;;;;;;5103313;27;20036;-67
2021/10/16 11:55:50;;;;;;;12.43;2.30;;;13.10;99.90;;;;;;5102254;28;20039;-67
2021/10/16 11:58:18;;;;;;;9.13;2.20;;;13.10;99.90;;;;;;5100253;28;20039;-67
2021/10/16 12:00:49;;;;;;;10.98;2.63;;;13.20;99.90;;;;;;5105104;27;21152;-67
2021/10/16 12:03:18;;;;;;;10.48;2.40;;;13.10;99.90;;;;;;5104558;28;20520;-67
2021/10/16 12:05:46;;;;;;;12.60;2.55;;;13.10;99.90;;;;;;5132261;27;20043;-67
2021/10/16 12:08:26;;;;;;;7.75;2.13;;;13.10;99.90;;;;;;5107574;27;20126;-67
2021/10/16 12:11:03;;;;;;;15.55;3.05;;;13.00;99.90;;;;;;5130095;27;20039;-68
2021/10/16 12:13:30;;;;;;;9.32;2.00;;;13.10;99.90;;;;;;5100011;28;20051;-67
2021/10/16 12:15:56;;;;;;;13.65;2.85;;;13.00;99.90;;;;;;5105182;28;20047;-67
2021/10/16 12:18:30;;;;;;;15.30;2.38;;;13.00;99.90;;;;;;5105424;28;20071;-67
2021/10/16 12:20:59;;;;;;;15.43;2.95;;;13.10;99.90;;;;;;5102228;28;20061;-67
2021/10/16 12:23:45;;;;;;;10.13;3.28;;;13.00;99.90;;;;;;5105300;28;20102;-67
2021/10/16 12:26:26;;;;;;;13.25;3.03;;;13.10;99.90;;;;;;5101050;28;20044;-67
2021/10/16 12:28:53;;;;;;;17.20;3.63;;;13.10;99.90;;;;;;5103009;28;20086;-67
2021/10/16 12:31:20;;;;;;;8.55;2.25;;;13.00;99.90;;;;;;5101176;28;20028;-67
2021/10/16 12:34:03;;;;;;;21.27;3.22;;;13.00;99.90;;;;;;5103312;28;20050;-67
2021/10/16 12:36:35;;;;;;;10.18;2.78;;;13.00;99.90;;;;;;5101719;28;20401;-67
2021/10/16 12:39:05;;;;;;;9.63;2.67;;;13.10;99.90;;;;;;5101907;28;20051;-67
2021/10/16 12:41:39;;;;;;;14.10;2.50;;;13.10;99.90;;;;;;5106319;28;20047;-67
2021/10/16 12:44:20;;;;;;;11.02;1.98;;;13.10;99.90;;;;;;5107038;28;20376;-67
2021/10/16 12:47:02;;;;;;;11.90;2.30;;;13.20;99.90;;;;;;5101686;28;20200;-67
2021/10/16 12:49:35;;;;;;;18.00;3.08;;;13.30;99.90;;;;;;5100396;28;20422;-67
2021/10/16 12:52:02;;;;;;;11.68;2.20;;;13.30;99.90;;;;;;5104215;28;20127;-67